Time;durP1;ratioP1;P1;durP2;ratioP2;P2;SDS_P1;SDS_P2;PMS_P1;PMS_P2;Temp;Humidity;BMP_temperature;BMP_pressure;BME280_temperature;BME280_humidity;BME280_pressure;Samples;Min_cycle;Max_cycle;Signal;HPM_P1;HPM_P2
2022/03/22 00:00:09;;;;;;;36.10;25.10;;;;;;;;;;5082353;28;20052;-77
2022/03/22 00:02:36;;;;;;;45.38;27.45;;;;;;;;;;5086221;28;20087;-77
2022/03/22 00:05:04;;;;;;;41.58;26.63;;;;;;;;;;5084315;28;20059;-77
2022/03/22 00:07:32;;;;;;;40.53;25.45;;;;;;;;;;5084671;28;20048;-77
2022/03/22 00:09:59;;;;;;;40.13;26.48;;;;;;;;;;5081690;28;20110;-77
2022/03/22 00:12:27;;;;;;;37.03;25.63;;;;;;;;;;5083204;28;20058;-77
2022/03/22 00:14:54;;;;;;;43.47;26.98;;;;;;;;;;5083399;28;20058;-77
2022/03/22 00:17:23;;;;;;;45.78;27.13;;;;;;;;;;5084378;28;20062;-77
2022/03/22 00:19:51;;;;;;;39.97;26.33;;;;;;;;;;5079054;28;20487;-77
2022/03/22 00:22:19;;;;;;;39.42;25.80;;;;;;;;;;5082965;28;20060;-77
2022/03/22 00:24:46;;;;;;;44.55;28.48;;;;;;;;;;5080149;28;20147;-77
2022/03/22 00:27:13;;;;;;;40.25;26.13;;;;;;;;;;5082535;28;20054;-77
2022/03/22 00:29:41;;;;;;;48.45;27.83;;;;;;;;;;5081072;28;20055;-77
2022/03/22 00:32:08;;;;;;;40.40;27.77;;;;;;;;;;5082596;28;20060;-77
2022/03/22 00:34:44;;;;;;;40.72;26.70;;;;;;;;;;5082346;28;20138;-77
2022/03/22 00:37:13;;;;;;;46.47;29.20;;;;;;;;;;5082188;28;20169;-77
2022/03/22 00:39:41;;;;;;;38.72;26.85;;;;;;;;;;5077591;28;20044;-77
2022/03/22 00:42:08;;;;;;;42.28;28.67;;;;;;;;;;5081332;28;20419;-77
2022/03/22 00:44:37;;;;;;;40.97;27.40;;;;;;;;;;5078624;28;20055;-77
2022/03/22 00:47:04;;;;;;;44.28;28.83;;;;;;;;;;5081765;28;20143;-77
2022/03/22 00:49:33;;;;;;;43.50;28.75;;;;;;;;;;5084554;28;20040;-77
2022/03/22 00:52:04;;;;;;;37.22;25.48;;;;;;;;;;5082691;28;20135;-77
2022/03/22 00:54:32;;;;;;;46.92;28.02;;;;;;;;;;5084396;28;20075;-77
2022/03/22 00:57:00;;;;;;;44.58;27.60;;;;;;;;;;5084883;28;20067;-77
2022/03/22 01:02:13;;;;;;;44.10;26.23;;;;;;;;;;5087646;28;20056;-77
2022/03/22 01:04:40;;;;;;;44.03;29.00;;;;;;;;;;5085605;28;20106;-77
2022/03/22 01:07:09;;;;;;;41.45;27.88;;;;;;;;;;5086151;28;20063;-77
2022/03/22 01:09:36;;;;;;;44.60;28.60;;;;;;;;;;5078642;28;20048;-77
2022/03/22 01:12:04;;;;;;;42.45;27.40;;;;;;;;;;5083185;28;20066;-77
2022/03/22 01:14:31;;;;;;;43.75;27.75;;;;;;;;;;5088310;28;20073;-77
2022/03/22 01:16:59;;;;;;;44.15;28.60;;;;;;;;;;5084634;28;20138;-77
2022/03/22 01:19:26;;;;;;;47.88;29.83;;;;;;;;;;5084506;28;20043;-77
2022/03/22 01:21:55;;;;;;;45.75;29.23;;;;;;;;;;5087048;28;20062;-77
2022/03/22 01:24:23;;;;;;;43.97;29.63;;;;;;;;;;5086987;28;20051;-77
2022/03/22 01:26:51;;;;;;;43.85;29.70;;;;;;;;;;5085681;28;20135;-77
2022/03/22 01:29:18;;;;;;;52.47;29.42;;;;;;;;;;5087403;28;20092;-77
2022/03/22 01:31:46;;;;;;;43.75;29.20;;;;;;;;;;5084633;28;20056;-77
2022/03/22 01:34:13;;;;;;;45.75;30.67;;;;;;;;;;5085234;28;20207;-77
2022/03/22 01:36:40;;;;;;;46.72;30.15;;;;;;;;;;5086986;28;20044;-77
2022/03/22 01:39:08;;;;;;;43.90;30.63;;;;;;;;;;5085239;28;20054;-77
2022/03/22 01:41:36;;;;;;;45.92;30.17;;;;;;;;;;5083578;28;20047;-77
2022/03/22 01:44:04;;;;;;;46.30;29.80;;;;;;;;;;5086727;28;20056;-77
2022/03/22 01:46:31;;;;;;;42.03;29.88;;;;;;;;;;5086399;28;20044;-77
2022/03/22 01:48:58;;;;;;;46.42;30.48;;;;;;;;;;5087019;28;20533;-77
2022/03/22 01:51:26;;;;;;;43.53;28.90;;;;;;;;;;5084221;28;20052;-77
2022/03/22 01:53:53;;;;;;;43.95;28.90;;;;;;;;;;5086423;28;20056;-77
2022/03/22 01:56:21;;;;;;;49.55;29.33;;;;;;;;;;5078653;28;20063;-77
2022/03/22 01:58:50;;;;;;;44.38;29.90;;;;;;;;;;5086201;28;20127;-77
2022/03/22 02:06:48;;;;;;;43.17;30.10;;;;;;;;;;5083532;28;20224;-77
2022/03/22 02:09:15;;;;;;;48.17;30.50;;;;;;;;;;5086401;28;20479;-77
2022/03/22 02:11:42;;;;;;;49.13;32.35;;;;;;;;;;5084242;28;20160;-77
2022/03/22 02:14:11;;;;;;;47.85;31.05;;;;;;;;;;5087494;28;20044;-77
2022/03/22 02:16:38;;;;;;;47.28;31.48;;;;;;;;;;5085754;28;20683;-77
2022/03/22 02:19:09;;;;;;;49.42;32.03;;;;;;;;;;5087054;28;20042;-77
2022/03/22 02:21:37;;;;;;;49.67;31.25;;;;;;;;;;5084129;28;20070;-77
2022/03/22 02:24:06;;;;;;;47.58;31.38;;;;;;;;;;5085514;28;20059;-77
2022/03/22 02:26:34;;;;;;;46.58;31.08;;;;;;;;;;5084039;28;20534;-77
2022/03/22 02:29:01;;;;;;;53.45;32.22;;;;;;;;;;5080650;28;20044;-77
2022/03/22 02:31:29;;;;;;;43.13;29.33;;;;;;;;;;5083740;28;20062;-77
2022/03/22 02:33:57;;;;;;;48.38;31.27;;;;;;;;;;5084834;28;20109;-77
2022/03/22 02:36:25;;;;;;;47.50;31.65;;;;;;;;;;5083151;28;20075;-77
2022/03/22 02:38:52;;;;;;;50.58;31.95;;;;;;;;;;5084288;28;20048;-77
2022/03/22 02:41:22;;;;;;;43.88;29.70;;;;;;;;;;5085182;28;20062;-77
2022/03/22 02:43:50;;;;;;;47.50;31.38;;;;;;;;;;5083800;28;20131;-77
2022/03/22 02:46:18;;;;;;;48.45;29.95;;;;;;;;;;5083158;28;20060;-77
2022/03/22 02:48:45;;;;;;;49.03;33.28;;;;;;;;;;5080982;28;21025;-77
2022/03/22 02:51:13;;;;;;;48.75;33.05;;;;;;;;;;5081661;28;20066;-77
2022/03/22 02:53:40;;;;;;;47.50;32.75;;;;;;;;;;5084027;28;20067;-77
2022/03/22 02:56:08;;;;;;;43.25;29.83;;;;;;;;;;5082938;28;20058;-77
2022/03/22 02:58:36;;;;;;;44.97;31.48;;;;;;;;;;5077887;28;20047;-77
2022/03/22 03:01:04;;;;;;;45.08;30.48;;;;;;;;;;5081220;28;20058;-77
2022/03/22 03:03:32;;;;;;;51.00;30.98;;;;;;;;;;5079920;28;20074;-77
2022/03/22 03:06:00;;;;;;;47.20;32.50;;;;;;;;;;5082764;28;20054;-77
2022/03/22 03:08:29;;;;;;;48.53;33.28;;;;;;;;;;5081980;28;20455;-77
2022/03/22 03:10:57;;;;;;;44.20;30.08;;;;;;;;;;5073050;28;20083;-77
2022/03/22 03:13:24;;;;;;;48.28;32.05;;;;;;;;;;5076597;28;20049;-77
2022/03/22 03:15:53;;;;;;;50.22;30.88;;;;;;;;;;5080937;28;20533;-77
2022/03/22 03:18:21;;;;;;;46.42;29.83;;;;;;;;;;5082965;28;20056;-77
2022/03/22 03:20:49;;;;;;;44.90;30.35;;;;;;;;;;5078072;28;20063;-77
2022/03/22 03:23:16;;;;;;;48.65;32.42;;;;;;;;;;5085192;28;20098;-77
2022/03/22 03:25:44;;;;;;;45.33;30.98;;;;;;;;;;5080347;28;20582;-77
2022/03/22 03:28:12;;;;;;;53.70;30.52;;;;;;;;;;5084856;28;20052;-77
2022/03/22 03:30:39;;;;;;;48.58;32.72;;;;;;;;;;5080529;28;20080;-77
2022/03/22 03:33:08;;;;;;;46.17;31.63;;;;;;;;;;5076467;28;20060;-77
2022/03/22 03:35:35;;;;;;;47.55;33.15;;;;;;;;;;5084874;28;20048;-77
2022/03/22 03:38:02;;;;;;;49.30;33.97;;;;;;;;;;5082735;28;20062;-77
2022/03/22 03:43:22;;;;;;;47.50;31.23;;;;;;;;;;5120983;27;1308882;-75
2022/03/22 03:48:35;;;;;;;49.70;33.17;;;;;;;;;;5125052;27;20050;-75
2022/03/22 03:51:02;;;;;;;54.92;34.90;;;;;;;;;;5126078;27;20068;-75
2022/03/22 03:53:29;;;;;;;50.17;32.63;;;;;;;;;;5123530;27;20047;-75
2022/03/22 03:55:57;;;;;;;49.85;32.90;;;;;;;;;;5120938;27;20129;-75
2022/03/22 03:58:25;;;;;;;55.30;33.83;;;;;;;;;;5125451;27;20427;-75
2022/03/22 04:00:53;;;;;;;46.22;32.33;;;;;;;;;;5120448;27;20821;-75
2022/03/22 04:03:20;;;;;;;47.67;32.47;;;;;;;;;;5125886;27;20049;-76
2022/03/22 04:05:47;;;;;;;46.50;30.52;;;;;;;;;;5122358;27;20134;-76
2022/03/22 04:08:15;;;;;;;48.60;32.72;;;;;;;;;;5124189;27;20165;-76
2022/03/22 04:10:42;;;;;;;45.25;31.15;;;;;;;;;;5125032;27;20081;-76
2022/03/22 04:13:09;;;;;;;43.92;30.15;;;;;;;;;;5125754;27;20515;-76
2022/03/22 04:15:38;;;;;;;49.63;31.10;;;;;;;;;;5119795;27;20043;-76
2022/03/22 04:18:05;;;;;;;43.88;29.05;;;;;;;;;;5124298;27;20062;-76
2022/03/22 04:20:33;;;;;;;49.30;28.05;;;;;;;;;;5125097;27;20541;-76
2022/03/22 04:23:00;;;;;;;45.70;31.52;;;;;;;;;;5123887;27;20047;-76
2022/03/22 04:25:27;;;;;;;46.42;31.33;;;;;;;;;;5125098;27;20135;-76
2022/03/22 04:33:26;;;;;;;48.50;29.10;;;;;;;;;;5123068;27;20063;-76
2022/03/22 04:35:53;;;;;;;52.63;32.50;;;;;;;;;;5119852;27;20055;-76
2022/03/22 04:38:21;;;;;;;45.38;30.38;;;;;;;;;;5120148;28;20096;-76
2022/03/22 04:40:48;;;;;;;57.47;33.42;;;;;;;;;;5120220;27;20490;-76
2022/03/22 04:43:16;;;;;;;48.70;32.50;;;;;;;;;;5120044;28;20102;-76
2022/03/22 04:45:44;;;;;;;50.00;31.75;;;;;;;;;;5117856;28;20051;-76
2022/03/22 04:48:12;;;;;;;52.63;34.30;;;;;;;;;;5116653;28;20059;-76
2022/03/22 04:50:39;;;;;;;47.30;32.63;;;;;;;;;;5120101;28;20047;-76
2022/03/22 04:58:36;;;;;;;46.20;29.02;;;;;;;;;;5105466;28;20158;-76
2022/03/22 05:01:06;;;;;;;50.08;32.42;;;;;;;;;;5106066;28;20468;-76
2022/03/22 05:03:33;;;;;;;50.92;33.47;;;;;;;;;;5106419;28;20048;-76
2022/03/22 05:08:48;;;;;;;48.53;33.60;;;;;;;;;;5094606;28;20517;-76
2022/03/22 05:11:15;;;;;;;47.15;32.30;;;;;;;;;;5104017;28;20044;-76
2022/03/22 05:13:42;;;;;;;56.10;34.90;;;;;;;;;;5101571;28;20048;-75
2022/03/22 05:16:11;;;;;;;49.60;32.72;;;;;;;;;;5105431;28;20047;-75
2022/03/22 05:18:38;;;;;;;55.55;35.78;;;;;;;;;;5102108;28;20142;-75
2022/03/22 05:21:06;;;;;;;53.60;33.25;;;;;;;;;;5103989;28;20134;-75
2022/03/22 05:23:34;;;;;;;58.83;35.47;;;;;;;;;;5103495;28;20050;-75
2022/03/22 05:26:02;;;;;;;56.08;36.17;;;;;;;;;;5105901;28;20394;-75
2022/03/22 05:28:30;;;;;;;51.42;34.38;;;;;;;;;;5105292;28;20048;-75
2022/03/22 05:30:58;;;;;;;66.35;39.97;;;;;;;;;;5105202;28;20386;-75
2022/03/22 05:33:26;;;;;;;58.10;38.67;;;;;;;;;;5104509;28;20062;-76
2022/03/22 05:35:54;;;;;;;58.67;36.40;;;;;;;;;;5104152;28;20505;-76
2022/03/22 05:38:21;;;;;;;60.50;38.75;;;;;;;;;;5103606;28;20078;-75
2022/03/22 05:40:48;;;;;;;59.20;38.97;;;;;;;;;;5095232;28;20590;-75
2022/03/22 05:43:16;;;;;;;57.35;38.70;;;;;;;;;;5097738;28;20135;-75
2022/03/22 05:45:48;;;;;;;58.05;39.63;;;;;;;;;;5091825;28;20051;-76
2022/03/22 05:48:16;;;;;;;63.75;37.30;;;;;;;;;;5094185;28;20044;-75
2022/03/22 05:50:44;;;;;;;54.88;36.78;;;;;;;;;;5096625;28;20043;-75
2022/03/22 05:53:12;;;;;;;64.55;42.33;;;;;;;;;;5096071;28;21334;-76
2022/03/22 05:55:39;;;;;;;58.35;36.53;;;;;;;;;;5098366;28;20398;-77
2022/03/22 05:58:06;;;;;;;60.17;40.17;;;;;;;;;;5116113;27;20055;-76
2022/03/22 06:00:34;;;;;;;62.60;39.38;;;;;;;;;;5095041;28;20088;-76
2022/03/22 06:03:02;;;;;;;57.65;38.38;;;;;;;;;;5095519;28;20050;-76
2022/03/22 06:05:30;;;;;;;64.90;41.38;;;;;;;;;;5095946;28;20522;-76
2022/03/22 06:07:59;;;;;;;57.83;39.42;;;;;;;;;;5102439;28;20461;-76
2022/03/22 06:10:29;;;;;;;67.75;41.20;;;;;;;;;;5102448;28;20544;-76
2022/03/22 06:12:57;;;;;;;63.05;39.63;;;;;;;;;;5101397;28;20454;-77
2022/03/22 06:15:25;;;;;;;70.40;44.10;;;;;;;;;;5100686;28;20061;-78
2022/03/22 06:17:55;;;;;;;61.25;38.83;;;;;;;;;;5101162;28;20050;-75
2022/03/22 06:20:24;;;;;;;57.45;39.38;;;;;;;;;;5114555;27;20144;-74
2022/03/22 06:22:51;;;;;;;63.13;40.17;;;;;;;;;;5100796;28;20048;-74
2022/03/22 06:25:21;;;;;;;68.35;41.67;;;;;;;;;;5102115;28;20058;-75
2022/03/22 06:27:49;;;;;;;63.63;41.17;;;;;;;;;;5098981;28;20661;-75
2022/03/22 06:30:18;;;;;;;73.25;44.67;;;;;;;;;;5099749;28;20052;-75
2022/03/22 06:32:46;;;;;;;61.00;40.63;;;;;;;;;;5101343;28;20126;-76
2022/03/22 06:35:14;;;;;;;62.58;39.42;;;;;;;;;;5104095;28;20058;-76
2022/03/22 06:37:41;;;;;;;60.65;41.45;;;;;;;;;;5104633;28;20385;-76
2022/03/22 06:40:09;;;;;;;65.82;42.97;;;;;;;;;;5103011;28;20048;-76
2022/03/22 06:42:38;;;;;;;68.80;45.75;;;;;;;;;;5096647;28;20060;-75
2022/03/22 06:45:07;;;;;;;64.93;42.20;;;;;;;;;;5083022;28;20048;-75
2022/03/22 06:47:35;;;;;;;62.25;39.15;;;;;;;;;;5077858;28;20062;-75
2022/03/22 06:50:03;;;;;;;63.28;41.88;;;;;;;;;;5084829;28;20059;-75
2022/03/22 06:52:31;;;;;;;54.72;38.80;;;;;;;;;;5084412;28;20051;-75
2022/03/22 06:54:58;;;;;;;58.50;38.58;;;;;;;;;;5082862;28;20521;-75
2022/03/22 06:57:27;;;;;;;54.05;37.20;;;;;;;;;;5083149;28;20630;-75
2022/03/22 06:59:55;;;;;;;51.83;37.42;;;;;;;;;;5073118;28;20053;-75
2022/03/22 07:02:23;;;;;;;56.30;38.38;;;;;;;;;;5078817;28;20403;-75
2022/03/22 07:04:50;;;;;;;56.88;38.53;;;;;;;;;;5078813;28;20060;-75
2022/03/22 07:07:18;;;;;;;58.28;39.80;;;;;;;;;;5083532;28;20117;-75
2022/03/22 07:09:45;;;;;;;58.33;38.65;;;;;;;;;;5080792;28;20141;-75
2022/03/22 07:12:13;;;;;;;56.85;39.97;;;;;;;;;;5075929;28;20063;-75
2022/03/22 07:14:42;;;;;;;58.97;38.83;;;;;;;;;;5077990;28;20044;-75
2022/03/22 07:17:11;;;;;;;59.97;40.05;;;;;;;;;;5084145;28;20092;-75
2022/03/22 07:19:39;;;;;;;57.83;40.30;;;;;;;;;;5081027;28;20494;-75
2022/03/22 07:22:06;;;;;;;58.33;39.58;;;;;;;;;;5083308;28;20143;-75
2022/03/22 07:24:34;;;;;;;62.70;41.42;;;;;;;;;;5082478;28;20124;-75
2022/03/22 07:27:01;;;;;;;59.28;39.10;;;;;;;;;;5084379;28;20048;-75
2022/03/22 07:29:29;;;;;;;63.10;41.45;;;;;;;;;;5082225;28;20052;-75
2022/03/22 07:31:59;;;;;;;60.05;40.63;;;;;;;;;;5073268;28;20055;-75
2022/03/22 07:34:28;;;;;;;56.10;38.05;;;;;;;;;;5071619;28;20067;-75
2022/03/22 07:36:55;;;;;;;62.03;41.72;;;;;;;;;;5069461;28;20051;-75
2022/03/22 07:39:23;;;;;;;62.72;40.65;;;;;;;;;;5070814;28;20052;-75
2022/03/22 07:41:51;;;;;;;54.67;38.63;;;;;;;;;;5075853;28;20052;-75
2022/03/22 07:44:19;;;;;;;58.00;39.63;;;;;;;;;;5095646;28;20421;-75
2022/03/22 07:46:47;;;;;;;56.17;38.67;;;;;;;;;;5096075;28;20066;-75
2022/03/22 07:54:45;;;;;;;55.72;38.10;;;;;;;;;;5081078;28;20138;-75
2022/03/22 07:57:12;;;;;;;57.47;40.08;;;;;;;;;;5100997;28;20056;-75
2022/03/22 07:59:40;;;;;;;58.13;39.75;;;;;;;;;;5100477;28;20068;-75
2022/03/22 08:02:07;;;;;;;57.90;39.40;;;;;;;;;;5103494;28;20138;-75
2022/03/22 08:04:34;;;;;;;59.03;40.55;;;;;;;;;;5096071;28;20040;-75
2022/03/22 08:07:03;;;;;;;62.65;39.63;;;;;;;;;;5094697;28;20048;-75
2022/03/22 08:09:30;;;;;;;59.20;38.92;;;;;;;;;;5089022;28;20140;-75
2022/03/22 08:11:57;;;;;;;60.50;40.13;;;;;;;;;;5095987;28;20595;-76
2022/03/22 08:14:25;;;;;;;56.15;38.47;;;;;;;;;;5095328;28;20044;-75
2022/03/22 08:16:52;;;;;;;54.20;38.67;;;;;;;;;;5093977;28;20160;-75
2022/03/22 08:19:19;;;;;;;58.22;39.75;;;;;;;;;;5099618;28;20048;-75
2022/03/22 08:21:48;;;;;;;51.83;38.13;;;;;;;;;;5098243;28;20044;-75
2022/03/22 08:24:17;;;;;;;54.22;38.40;;;;;;;;;;5095941;28;20047;-75
2022/03/22 08:26:44;;;;;;;57.20;39.35;;;;;;;;;;5095568;28;20194;-75
2022/03/22 08:29:11;;;;;;;57.33;38.70;;;;;;;;;;5098866;28;20057;-75
2022/03/22 08:31:39;;;;;;;56.08;38.97;;;;;;;;;;5099146;28;20039;-75
2022/03/22 08:34:06;;;;;;;54.42;38.15;;;;;;;;;;5107040;28;20040;-75
2022/03/22 08:36:34;;;;;;;53.42;36.88;;;;;;;;;;5105420;28;20052;-75
2022/03/22 08:39:02;;;;;;;53.40;36.55;;;;;;;;;;5102833;28;20418;-75
2022/03/22 08:41:32;;;;;;;51.90;37.15;;;;;;;;;;5104683;28;20051;-75
2022/03/22 08:43:59;;;;;;;59.25;38.17;;;;;;;;;;5104703;28;20051;-75
2022/03/22 08:46:27;;;;;;;51.92;36.25;;;;;;;;;;5119823;27;20112;-75
2022/03/22 08:48:55;;;;;;;58.85;37.10;;;;;;;;;;5098318;28;20467;-75
2022/03/22 08:51:24;;;;;;;51.17;36.47;;;;;;;;;;5099545;28;20474;-75
2022/03/22 08:53:51;;;;;;;55.38;36.05;;;;;;;;;;5095573;28;20039;-75
2022/03/22 08:56:19;;;;;;;50.42;35.50;;;;;;;;;;5099082;28;20050;-75
2022/03/22 08:58:52;;;;;;;48.05;36.05;;;;;;;;;;5097543;28;20059;-75
2022/03/22 09:01:23;;;;;;;51.35;34.92;;;;;;;;;;5100655;28;20169;-75
2022/03/22 09:06:07;;;;;;;51.75;33.58;;;;;;;;;;5101031;28;20063;-75
2022/03/22 09:06:38;;;;;;;48.67;33.38;;;;;;;;;;5098737;28;20487;-75
2022/03/22 09:09:06;;;;;;;47.70;33.15;;;;;;;;;;5112573;27;20141;-75
2022/03/22 09:11:36;;;;;;;48.33;34.45;;;;;;;;;;5094471;28;21376;-75
2022/03/22 09:14:05;;;;;;;50.97;33.92;;;;;;;;;;5091556;28;20125;-75
2022/03/22 09:16:33;;;;;;;46.92;33.67;;;;;;;;;;5099064;28;20047;-76
2022/03/22 09:19:00;;;;;;;48.28;33.75;;;;;;;;;;5114279;27;20138;-76
2022/03/22 09:21:29;;;;;;;51.13;33.45;;;;;;;;;;5094971;28;20117;-76
2022/03/22 09:23:56;;;;;;;48.45;33.95;;;;;;;;;;5113715;27;20057;-76
2022/03/22 09:26:24;;;;;;;53.10;33.28;;;;;;;;;;5098981;28;20138;-76
2022/03/22 09:28:53;;;;;;;46.35;31.92;;;;;;;;;;5097455;28;20105;-76
2022/03/22 09:31:24;;;;;;;47.60;32.45;;;;;;;;;;5101808;28;20051;-77
2022/03/22 09:33:51;;;;;;;46.85;32.92;;;;;;;;;;5101479;28;20039;-76
2022/03/22 09:36:18;;;;;;;47.53;32.35;;;;;;;;;;5102258;28;20064;-76
2022/03/22 09:38:46;;;;;;;43.25;32.65;;;;;;;;;;5096615;28;20044;-76
2022/03/22 09:41:14;;;;;;;44.78;31.52;;;;;;;;;;5100200;28;20517;-76
2022/03/22 09:43:46;;;;;;;42.40;31.73;;;;;;;;;;5094894;28;20498;-76
2022/03/22 09:46:16;;;;;;;42.67;32.50;;;;;;;;;;5077676;28;20101;-76
2022/03/22 09:48:44;;;;;;;44.70;32.20;;;;;;;;;;5081881;28;20055;-76
2022/03/22 09:53:57;;;;;;;41.92;30.92;;;;;;;;;;5077905;28;20674;-76
2022/03/22 09:56:30;;;;;;;45.58;33.15;;;;;;;;;;5080286;28;20051;-76
2022/03/22 09:58:57;;;;;;;43.78;31.30;;;;;;;;;;5079634;28;20058;-76
2022/03/22 10:01:24;;;;;;;44.05;31.52;;;;;;;;;;5076998;28;20145;-76
2022/03/22 10:04:03;;;;;;;45.13;32.28;;;;;;;;;;5081074;28;20052;-76
2022/03/22 10:06:30;;;;;;;43.15;32.28;;;;;;;;;;5078584;28;20783;-76
2022/03/22 10:08:58;;;;;;;46.53;33.50;;;;;;;;;;5078611;28;20051;-76
2022/03/22 10:11:35;;;;;;;51.25;33.30;;;;;;;;;;5074944;28;20091;-77
2022/03/22 10:14:03;;;;;;;48.88;32.92;;;;;;;;;;5074084;28;20032;-76
2022/03/22 10:16:30;;;;;;;41.03;31.08;;;;;;;;;;5075772;28;20052;-76
2022/03/22 10:18:58;;;;;;;46.67;31.40;;;;;;;;;;5076905;28;20066;-76
2022/03/22 10:21:28;;;;;;;47.03;30.75;;;;;;;;;;5076914;28;20047;-76
2022/03/22 10:23:56;;;;;;;44.15;31.27;;;;;;;;;;5075642;28;20047;-76
2022/03/22 10:26:33;;;;;;;46.60;31.63;;;;;;;;;;5074099;28;20139;-76
2022/03/22 10:29:00;;;;;;;42.35;31.20;;;;;;;;;;5080143;28;20137;-76
2022/03/22 10:31:34;;;;;;;43.45;31.75;;;;;;;;;;5078742;28;20048;-76
2022/03/22 10:34:02;;;;;;;46.67;31.58;;;;;;;;;;5076310;28;20047;-76
2022/03/22 10:36:34;;;;;;;42.90;30.48;;;;;;;;;;5079816;28;20048;-76
2022/03/22 10:39:02;;;;;;;41.22;30.65;;;;;;;;;;5079699;28;20056;-76
2022/03/22 10:41:29;;;;;;;39.42;29.00;;;;;;;;;;5078817;28;20494;-76
2022/03/22 10:44:07;;;;;;;46.13;29.05;;;;;;;;;;5098801;28;20066;-76
2022/03/22 10:46:35;;;;;;;42.50;30.35;;;;;;;;;;5113644;27;20517;-76
2022/03/22 10:49:06;;;;;;;40.60;29.27;;;;;;;;;;5097650;28;20051;-76
2022/03/22 10:51:43;;;;;;;43.95;28.73;;;;;;;;;;5099300;28;20100;-76
2022/03/22 10:54:12;;;;;;;42.58;29.45;;;;;;;;;;5100422;28;20075;-76
2022/03/22 10:56:45;;;;;;;42.38;30.08;;;;;;;;;;5098787;28;20047;-76
2022/03/22 10:59:13;;;;;;;40.67;29.00;;;;;;;;;;5101964;28;20091;-76
2022/03/22 11:01:41;;;;;;;41.83;29.23;;;;;;;;;;5103538;28;20297;-76
2022/03/22 11:04:09;;;;;;;42.85;29.23;;;;;;;;;;5104140;28;20062;-76
2022/03/22 11:06:38;;;;;;;42.65;28.52;;;;;;;;;;5101272;28;20452;-76
2022/03/22 11:09:06;;;;;;;39.42;27.90;;;;;;;;;;5104145;28;20055;-77
2022/03/22 11:11:35;;;;;;;43.35;28.85;;;;;;;;;;5104663;28;20869;-76
2022/03/22 11:14:02;;;;;;;41.65;28.00;;;;;;;;;;5104421;28;21176;-76
2022/03/22 11:16:30;;;;;;;40.80;27.92;;;;;;;;;;5101944;28;20410;-77
2022/03/22 11:18:59;;;;;;;46.03;27.70;;;;;;;;;;5102901;28;20047;-77
2022/03/22 11:21:27;;;;;;;44.72;28.63;;;;;;;;;;5103384;28;20511;-77
2022/03/22 11:24:05;;;;;;;40.65;28.02;;;;;;;;;;5101437;28;20043;-77
2022/03/22 11:26:32;;;;;;;42.78;26.95;;;;;;;;;;5098303;28;20070;-77
2022/03/22 11:29:01;;;;;;;38.67;26.48;;;;;;;;;;5102136;28;20047;-77
2022/03/22 11:31:29;;;;;;;41.42;27.20;;;;;;;;;;5103750;28;20401;-77
2022/03/22 11:36:43;;;;;;;37.90;27.23;;;;;;;;;;5100610;28;20183;-77
2022/03/22 11:39:11;;;;;;;36.55;25.95;;;;;;;;;;5101214;28;20059;-77
2022/03/22 11:44:29;;;;;;;38.42;26.25;;;;;;;;;;5092536;28;20097;-77
2022/03/22 11:47:03;;;;;;;40.33;27.40;;;;;;;;;;5098999;28;20055;-76
2022/03/22 11:49:31;;;;;;;32.03;24.50;;;;;;;;;;5101616;28;20105;-76
2022/03/22 11:51:59;;;;;;;35.58;25.38;;;;;;;;;;5097993;28;20402;-76
2022/03/22 11:54:29;;;;;;;39.25;26.83;;;;;;;;;;5094058;28;20513;-76
2022/03/22 11:56:59;;;;;;;40.00;26.42;;;;;;;;;;5099293;28;20621;-76
2022/03/22 11:59:26;;;;;;;38.25;26.83;;;;;;;;;;5101250;28;20048;-76
2022/03/22 12:02:01;;;;;;;34.92;26.20;;;;;;;;;;5103305;28;20432;-76
2022/03/22 12:04:39;;;;;;;37.38;24.83;;;;;;;;;;5104219;28;20048;-76
2022/03/22 12:07:07;;;;;;;38.30;24.67;;;;;;;;;;5105777;28;20047;-76
2022/03/22 12:09:38;;;;;;;33.92;24.08;;;;;;;;;;5108145;28;20105;-76
2022/03/22 12:12:07;;;;;;;34.00;23.70;;;;;;;;;;5104915;28;20047;-76
2022/03/22 12:14:35;;;;;;;35.50;24.20;;;;;;;;;;5106147;28;20039;-76
2022/03/22 12:17:02;;;;;;;40.20;25.83;;;;;;;;;;5101610;28;20063;-76
2022/03/22 12:19:30;;;;;;;31.75;21.95;;;;;;;;;;5097263;27;20050;-76
2022/03/22 12:21:58;;;;;;;32.20;23.38;;;;;;;;;;5101529;28;20144;-76
2022/03/22 12:24:27;;;;;;;29.98;21.48;;;;;;;;;;5096891;28;20402;-76
2022/03/22 12:26:58;;;;;;;34.15;22.40;;;;;;;;;;5101294;28;20533;-76
2022/03/22 12:29:26;;;;;;;29.05;22.77;;;;;;;;;;5101102;28;20131;-76
2022/03/22 12:31:54;;;;;;;32.50;23.13;;;;;;;;;;5102336;28;20043;-76
2022/03/22 12:34:24;;;;;;;34.40;22.83;;;;;;;;;;5105637;28;20055;-76
2022/03/22 12:36:52;;;;;;;28.40;21.95;;;;;;;;;;5101855;28;20082;-76
2022/03/22 12:39:19;;;;;;;28.63;23.10;;;;;;;;;;5098426;28;20070;-76
2022/03/22 12:41:46;;;;;;;30.83;22.58;;;;;;;;;;5104627;28;20155;-76
2022/03/22 12:44:15;;;;;;;27.77;22.63;;;;;;;;;;5102457;28;20055;-77
2022/03/22 12:46:42;;;;;;;32.78;21.77;;;;;;;;;;5101243;28;20058;-77
2022/03/22 12:49:10;;;;;;;26.73;21.58;;;;;;;;;;5102535;28;20055;-77
2022/03/22 12:51:37;;;;;;;27.30;20.50;;;;;;;;;;5105370;28;20047;-77
2022/03/22 12:54:06;;;;;;;27.63;21.23;;;;;;;;;;5100287;28;20530;-77
2022/03/22 12:56:34;;;;;;;25.90;19.80;;;;;;;;;;5101360;28;20079;-77
2022/03/22 12:59:01;;;;;;;24.48;18.23;;;;;;;;;;5102999;28;20413;-77
2022/03/22 13:01:42;;;;;;;25.58;18.73;;;;;;;;;;5103636;28;20048;-77
2022/03/22 13:04:09;;;;;;;32.08;19.02;;;;;;;;;;5098176;28;20486;-77
2022/03/22 13:06:36;;;;;;;24.55;18.15;;;;;;;;;;5103360;28;20059;-77
2022/03/22 13:11:48;;;;;;;27.73;18.20;;;;;;;;;;5101251;28;20180;-76
2022/03/22 13:17:02;;;;;;;27.73;18.63;;;;;;;;;;5103017;28;20059;-77
2022/03/22 13:19:32;;;;;;;25.35;18.58;;;;;;;;;;5104315;28;20513;-77
2022/03/22 13:21:59;;;;;;;27.85;20.45;;;;;;;;;;5100640;28;20039;-77
2022/03/22 13:24:28;;;;;;;23.40;17.67;;;;;;;;;;5103655;28;20047;-77
2022/03/22 13:26:56;;;;;;;28.42;19.80;;;;;;;;;;5102605;28;20096;-77
2022/03/22 13:29:24;;;;;;;19.80;16.27;;;;;;;;;;5101994;28;20055;-77
2022/03/22 13:31:55;;;;;;;22.10;15.70;;;;;;;;;;5101664;28;20056;-77
2022/03/22 13:34:24;;;;;;;20.08;14.27;;;;;;;;;;5103089;28;20390;-77
2022/03/22 13:36:51;;;;;;;21.27;14.95;;;;;;;;;;5099340;28;20047;-77
2022/03/22 13:39:25;;;;;;;20.27;13.93;;;;;;;;;;5103617;28;20064;-77
2022/03/22 13:41:52;;;;;;;19.73;13.52;;;;;;;;;;5101084;28;20166;-78
2022/03/22 13:44:28;;;;;;;18.35;14.27;;;;;;;;;;5101376;28;20047;-77
2022/03/22 13:46:59;;;;;;;23.05;14.07;;;;;;;;;;5093161;27;20051;-77
2022/03/22 13:49:35;;;;;;;18.45;15.20;;;;;;;;;;5099726;28;20039;-77
2022/03/22 13:52:02;;;;;;;21.52;14.85;;;;;;;;;;5099187;28;20098;-77
2022/03/22 13:54:30;;;;;;;22.15;16.50;;;;;;;;;;5100506;28;20040;-77
2022/03/22 13:57:06;;;;;;;17.73;15.38;;;;;;;;;;5099706;28;20058;-77
2022/03/22 13:59:39;;;;;;;23.63;16.52;;;;;;;;;;5101320;28;20051;-77
2022/03/22 14:02:06;;;;;;;21.02;14.05;;;;;;;;;;5096906;28;20097;-77
2022/03/22 14:04:35;;;;;;;20.10;15.25;;;;;;;;;;5095574;28;20700;-77
2022/03/22 14:07:02;;;;;;;24.42;14.98;;;;;;;;;;5096868;28;20510;-77
2022/03/22 14:09:31;;;;;;;21.00;14.85;;;;;;;;;;5094469;28;20402;-77
2022/03/22 14:11:58;;;;;;;19.05;13.73;;;;;;;;;;5098903;28;20084;-77
2022/03/22 14:14:26;;;;;;;23.35;17.00;;;;;;;;;;5099391;28;20055;-77
2022/03/22 14:16:53;;;;;;;21.48;16.83;;;;;;;;;;5098857;28;20051;-77
2022/03/22 14:19:20;;;;;;;24.15;16.67;;;;;;;;;;5096006;28;20084;-77
2022/03/22 14:21:49;;;;;;;23.35;17.17;;;;;;;;;;5101001;27;20055;-77
2022/03/22 14:24:17;;;;;;;28.35;17.23;;;;;;;;;;5097780;28;20055;-77
2022/03/22 14:26:44;;;;;;;23.55;16.67;;;;;;;;;;5096260;28;20062;-77
2022/03/22 14:29:11;;;;;;;21.60;16.25;;;;;;;;;;5098580;28;20060;-77
2022/03/22 14:31:39;;;;;;;21.13;15.25;;;;;;;;;;5100136;28;20056;-77
2022/03/22 14:34:06;;;;;;;16.90;14.77;;;;;;;;;;5101385;28;20130;-77
2022/03/22 14:36:33;;;;;;;18.60;14.18;;;;;;;;;;5120092;27;20115;-77
2022/03/22 14:39:01;;;;;;;19.98;14.90;;;;;;;;;;5095835;28;20092;-77
2022/03/22 14:41:30;;;;;;;19.33;14.70;;;;;;;;;;5119817;27;20145;-77
2022/03/22 14:43:57;;;;;;;17.73;14.48;;;;;;;;;;5102373;28;20064;-77
2022/03/22 14:46:25;;;;;;;21.55;16.75;;;;;;;;;;5098165;28;20054;-78
2022/03/22 14:48:54;;;;;;;22.20;16.27;;;;;;;;;;5099271;28;20128;-78
2022/03/22 14:54:02;;;;;;;22.45;15.68;;;;;;;;;;5098054;28;20084;-78
2022/03/22 14:54:13;;;;;;;22.05;16.45;;;;;;;;;;5100813;28;20455;-78
2022/03/22 14:59:25;;;;;;;25.00;16.40;;;;;;;;;;5100192;28;20044;-78
2022/03/22 15:01:53;;;;;;;22.20;16.33;;;;;;;;;;5103271;28;20060;-78
2022/03/22 15:04:21;;;;;;;19.85;15.57;;;;;;;;;;5097135;28;20052;-78
2022/03/22 15:06:49;;;;;;;18.98;15.70;;;;;;;;;;5092388;28;20444;-78
2022/03/22 15:09:18;;;;;;;18.15;15.10;;;;;;;;;;5097579;28;20066;-78
2022/03/22 15:11:45;;;;;;;22.25;14.02;;;;;;;;;;5093229;28;20056;-78